NCAR-RAP Real-Time Weather Data

Output produced by METARs form (17 July 2018  09:27 UTC)
found at http://weather.rap.ucar.edu/surface/
 
Conditions at: KTYQ observed 17 July 2018  09:15 UTC
Temperature: 19.0°C (66°F)
Dewpoint: 18.5°C (65°F) [RH = 97%]
Pressure (altimeter): 30.00 inches Hg (1016.0 mb)
Winds: from the N (360 degrees) at 3 MPH (3 knots; 1.6 m/s)
Visibility: 10 or more miles (16+ km)
Ceiling: at least 12,000 feet AGL
Clouds: sky clear below 12,000 feet AGL
Present Weather: automated observation with no human augmentation;
there may or may not be significant weather present at this time
KTYQ 170915Z AUTO 36003KT 10SM CLR 19/19 A3000 RMK AO2 LTG DSNT E T01900185